Time;durP1;ratioP1;P1;durP2;ratioP2;P2;SDS_P1;SDS_P2;PMS_P1;PMS_P2;Temp;Humidity;BMP_temperature;BMP_pressure;BME280_temperature;BME280_humidity;BME280_pressure;Samples;Min_cycle;Max_cycle;Signal;HPM_P1;HPM_P2
2022/06/26 00:01:54;;;;;;;;;4.50;4.50;;;;;21.82;59.20;98845.75;4826150;29;45469;-59
2022/06/26 00:04:20;;;;;;;;;6.50;5.75;;;;;21.82;59.27;98848.44;4825820;29;46160;-58
2022/06/26 00:06:46;;;;;;;;;5.40;5.40;;;;;21.81;60.25;98846.72;4825892;29;45433;-58
2022/06/26 00:09:11;;;;;;;;;6.00;5.00;;;;;21.77;59.90;98850.72;4825599;29;45626;-59
2022/06/26 00:11:37;;;;;;;;;6.50;5.50;;;;;21.75;59.83;98849.16;4825764;29;45526;-59
2022/06/26 00:14:02;;;;;;;;;6.00;6.00;;;;;21.70;60.41;98854.91;4825773;29;46902;-58
2022/06/26 00:16:27;;;;;;;;;8.00;7.00;;;;;21.67;60.19;98851.66;4825983;29;45478;-59
2022/06/26 00:18:53;;;;;;;;;4.50;4.50;;;;;21.65;60.15;98853.63;4825791;29;45618;-59
2022/06/26 00:21:18;;;;;;;;;5.50;4.75;;;;;21.64;60.73;98857.28;4825819;29;45341;-59
2022/06/26 00:23:44;;;;;;;;;5.00;5.00;;;;;21.58;60.51;98864.94;4825004;29;46320;-59
2022/06/26 00:26:09;;;;;;;;;5.25;5.25;;;;;21.55;60.05;98867.88;4825655;29;45392;-59
2022/06/26 00:28:34;;;;;;;;;4.00;4.00;;;;;21.49;62.27;98870.25;4808913;29;45264;-59
2022/06/26 00:31:01;;;;;;;;;2.50;2.50;;;;;21.38;62.36;98863.16;4825395;29;45475;-59
2022/06/26 00:33:26;;;;;;;;;4.25;4.25;;;;;21.30;63.16;98870.16;4825608;29;45472;-58
2022/06/26 00:35:52;;;;;;;;;5.75;5.75;;;;;21.20;62.63;98871.00;4825398;29;45433;-59
2022/06/26 00:38:17;;;;;;;;;4.75;4.75;;;;;21.13;61.98;98863.56;4825501;29;45307;-58
2022/06/26 00:40:42;;;;;;;;;6.00;5.25;;;;;21.11;63.56;98857.53;4825423;29;45453;-59
2022/06/26 00:43:08;;;;;;;;;5.75;5.75;;;;;21.07;63.37;98854.25;4825467;29;46089;-59
2022/06/26 00:45:34;;;;;;;;;6.25;5.00;;;;;21.04;62.36;98854.53;4825780;29;45430;-59
2022/06/26 00:48:00;;;;;;;;;4.75;4.75;;;;;21.03;62.71;98851.97;4825578;29;45410;-59
2022/06/26 00:50:26;;;;;;;;;5.25;5.25;;;;;21.03;62.91;98852.81;4825420;29;45488;-59
2022/06/26 00:52:53;;;;;;;;;5.00;5.00;;;;;21.03;63.03;98857.34;4825198;29;45375;-59
2022/06/26 00:55:19;;;;;;;;;5.20;5.20;;;;;21.03;62.56;98860.88;4824895;29;45352;-59
2022/06/26 00:57:45;;;;;;;;;7.80;5.00;;;;;21.04;62.56;98859.03;4825253;29;45436;-59
2022/06/26 01:00:13;;;;;;;;;5.00;5.00;;;;;21.06;63.19;98854.38;4824627;29;45577;-59
2022/06/26 01:02:39;;;;;;;;;5.25;5.25;;;;;21.07;62.77;98850.72;4824939;29;46478;-59
2022/06/26 01:05:06;;;;;;;;;4.00;3.80;;;;;21.07;62.49;98840.00;4825307;29;45414;-59
2022/06/26 01:07:32;;;;;;;;;4.80;4.80;;;;;21.05;62.68;98832.09;4825122;29;45446;-59
2022/06/26 01:09:57;;;;;;;;;4.50;4.50;;;;;21.02;62.73;98837.72;4824789;29;45667;-59
2022/06/26 01:12:24;;;;;;;;;5.00;5.00;;;;;21.00;62.65;98844.19;4825234;29;45804;-59
2022/06/26 01:14:51;;;;;;;;;5.00;5.00;;;;;20.99;63.29;98840.66;4824716;29;45396;-59
2022/06/26 01:17:17;;;;;;;;;4.00;3.25;;;;;20.98;63.55;98836.28;4825135;29;45217;-59
2022/06/26 01:19:43;;;;;;;;;5.50;5.00;;;;;20.93;63.84;98838.53;4824926;29;45448;-59
2022/06/26 01:22:09;;;;;;;;;3.00;3.00;;;;;20.88;63.23;98846.97;4824742;29;46629;-59
2022/06/26 01:24:34;;;;;;;;;4.75;4.75;;;;;20.86;64.01;98843.56;4824512;29;45457;-59
2022/06/26 01:27:00;;;;;;;;;8.25;5.25;;;;;20.84;63.36;98840.16;4824686;29;45416;-59
2022/06/26 01:29:26;;;;;;;;;5.00;5.00;;;;;20.81;63.47;98839.56;4824720;29;45448;-59
2022/06/26 01:31:51;;;;;;;;;5.50;5.00;;;;;20.79;64.15;98834.34;4824614;29;45537;-59
2022/06/26 01:34:17;;;;;;;;;4.75;4.75;;;;;20.78;63.40;98838.00;4824968;29;45428;-58
2022/06/26 01:36:42;;;;;;;;;6.75;6.00;;;;;20.78;63.54;98829.97;4824762;29;45259;-59
2022/06/26 01:39:08;;;;;;;;;4.25;4.25;;;;;20.83;63.72;98816.19;4824327;29;45578;-59
2022/06/26 01:41:33;;;;;;;;;5.75;5.00;;;;;20.88;63.89;98816.63;4824565;29;46193;-59
2022/06/26 01:43:59;;;;;;;;;4.50;4.00;;;;;20.88;63.86;98812.13;4824415;29;45315;-59
2022/06/26 01:46:25;;;;;;;;;8.25;5.00;;;;;20.93;63.64;98808.22;4824554;29;45373;-59
2022/06/26 01:48:51;;;;;;;;;5.00;5.00;;;;;20.96;63.27;98806.09;4824244;29;45373;-59
2022/06/26 01:51:17;;;;;;;;;6.00;5.00;;;;;20.99;62.93;98803.13;4824261;29;45479;-59
2022/06/26 01:53:43;;;;;;;;;5.00;5.00;;;;;21.03;63.06;98806.41;4824000;29;45264;-59
2022/06/26 01:56:09;;;;;;;;;5.20;5.20;;;;;21.02;63.54;98816.28;4824675;29;45426;-59
2022/06/26 01:58:34;;;;;;;;;4.25;4.25;;;;;21.01;63.09;98816.41;4824268;29;45338;-59
2022/06/26 02:01:00;;;;;;;;;9.00;7.75;;;;;21.00;63.46;98831.63;4824419;29;46519;-57
2022/06/26 02:03:27;;;;;;;;;10.25;7.75;;;;;21.01;63.78;98830.66;4824201;29;45500;-59
2022/06/26 02:05:52;;;;;;;;;11.25;7.50;;;;;21.02;63.59;98840.41;4824220;29;45403;-59
2022/06/26 02:08:18;;;;;;;;;7.50;7.50;;;;;21.02;63.54;98835.03;4824344;29;45501;-59
2022/06/26 02:13:36;;;;;;;;;7.00;6.00;;;;;20.99;63.70;98835.31;4823472;29;45504;-59
2022/06/26 02:16:08;;;;;;;;;6.50;6.50;;;;;20.99;63.58;98847.84;4824342;29;45442;-59
2022/06/26 02:18:34;;;;;;;;;6.00;6.00;;;;;21.00;64.38;98852.22;4823911;29;45468;-59
2022/06/26 02:21:00;;;;;;;;;5.00;5.00;;;;;20.99;64.29;98843.34;4823846;29;46311;-59
2022/06/26 02:23:26;;;;;;;;;6.75;6.00;;;;;20.98;64.79;98838.13;4824062;29;45452;-59
2022/06/26 02:25:52;;;;;;;;;6.00;6.00;;;;;20.99;64.52;98843.34;4823371;29;45500;-59
2022/06/26 02:28:17;;;;;;;;;6.25;5.25;;;;;21.02;64.40;98842.22;4823776;29;45331;-58
2022/06/26 02:30:44;;;;;;;;;8.00;7.00;;;;;21.04;64.99;98826.88;4824092;29;45383;-59
2022/06/26 02:33:10;;;;;;;;;6.00;5.60;;;;;20.99;64.29;98827.25;4824050;29;45427;-59
2022/06/26 02:35:35;;;;;;;;;9.75;9.75;;;;;20.93;64.13;98832.31;4807705;29;45363;-58
2022/06/26 02:38:00;;;;;;;;;15.50;12.25;;;;;20.87;64.56;98831.88;4824047;29;45480;-59
2022/06/26 02:40:29;;;;;;;;;11.50;10.00;;;;;20.86;64.47;98840.88;4823423;29;46377;-59
2022/06/26 02:42:54;;;;;;;;;15.40;13.80;;;;;20.88;65.04;98835.41;4823696;29;45507;-59
2022/06/26 02:45:20;;;;;;;;;18.75;17.50;;;;;20.93;65.01;98835.00;4823814;29;45482;-59
2022/06/26 02:47:46;;;;;;;;;13.50;12.25;;;;;20.99;64.93;98839.81;4823817;29;45509;-59
2022/06/26 02:50:12;;;;;;;;;9.00;9.00;;;;;21.05;64.87;98844.66;4823710;29;46387;-59
2022/06/26 02:52:38;;;;;;;;;14.75;11.75;;;;;21.12;64.03;98829.72;4823693;29;45321;-59
2022/06/26 02:55:04;;;;;;;;;10.00;8.75;;;;;21.19;63.55;98829.06;4823718;29;45451;-59
2022/06/26 02:57:30;;;;;;;;;13.75;12.00;;;;;21.22;63.61;98836.00;4823813;29;45365;-59
2022/06/26 02:59:56;;;;;;;;;12.75;12.75;;;;;21.22;64.05;98844.91;4823074;29;45447;-59
2022/06/26 03:02:23;;;;;;;;;11.25;10.50;;;;;21.24;63.74;98855.50;4823450;29;45408;-59
2022/06/26 03:04:49;;;;;;;;;10.50;10.50;;;;;21.29;64.06;98857.75;4823589;29;45324;-59
2022/06/26 03:07:14;;;;;;;;;10.00;9.50;;;;;21.30;64.58;98864.81;4823808;29;45458;-58
2022/06/26 03:09:39;;;;;;;;;12.75;11.00;;;;;21.31;66.06;98871.88;4823158;29;45617;-59
2022/06/26 03:12:05;;;;;;;;;9.75;9.00;;;;;21.31;65.18;98877.22;4806428;29;45453;-59
2022/06/26 03:14:31;;;;;;;;;7.50;7.50;;;;;21.28;65.24;98889.09;4823691;29;45462;-58
2022/06/26 03:16:57;;;;;;;;;7.00;7.00;;;;;21.30;65.86;98910.41;4823437;29;45337;-58
2022/06/26 03:19:23;;;;;;;;;7.25;7.00;;;;;21.30;66.16;98902.34;4823510;29;45537;-59
2022/06/26 03:21:49;;;;;;;;;9.20;8.00;;;;;21.31;65.51;98882.59;4823484;29;45340;-59
2022/06/26 03:24:14;;;;;;;;;7.25;7.25;;;;;21.29;66.63;98868.47;4825498;29;45401;-59
2022/06/26 03:26:40;;;;;;;;;8.50;7.25;;;;;21.28;66.65;98878.38;4826775;29;45409;-59
2022/06/26 03:29:08;;;;;;;;;8.00;8.00;;;;;21.28;68.16;98881.06;4826600;29;46348;-59
2022/06/26 03:31:33;;;;;;;;;8.20;8.20;;;;;21.27;67.46;98894.59;4826570;29;45385;-59
2022/06/26 03:33:59;;;;;;;;;10.00;10.00;;;;;21.18;65.75;98915.81;4826535;29;45510;-59
2022/06/26 03:36:25;;;;;;;;;5.50;5.50;;;;;21.05;67.62;98920.56;4826957;29;45391;-59
2022/06/26 03:38:52;;;;;;;;;10.00;9.75;;;;;20.93;69.94;98931.50;4825707;29;46289;-58
2022/06/26 03:41:18;;;;;;;;;7.40;7.00;;;;;20.75;70.70;98934.75;4826338;29;45362;-58
2022/06/26 03:43:43;;;;;;;;;6.25;5.00;;;;;20.53;69.69;98961.63;4826697;29;45387;-59
2022/06/26 03:46:09;;;;;;;;;7.50;7.00;;;;;20.29;72.33;98943.06;4826574;29;45422;-59
2022/06/26 03:48:34;;;;;;;;;8.00;6.00;;;;;20.12;72.90;98955.16;4825989;29;46215;-59
2022/06/26 03:51:01;;;;;;;;;4.50;4.50;;;;;20.01;71.64;98962.38;4826279;29;45420;-59
2022/06/26 03:53:27;;;;;;;;;5.25;5.00;;;;;19.91;73.54;98966.78;4826048;29;45535;-59
2022/06/26 03:55:53;;;;;;;;;6.00;5.75;;;;;19.84;73.89;98969.06;4825981;29;45409;-59
2022/06/26 03:58:18;;;;;;;;;6.50;6.50;;;;;19.80;73.78;98959.59;4825716;29;45730;-59
2022/06/26 04:00:44;;;;;;;;;6.75;6.25;;;;;19.73;75.08;98961.94;4826081;29;45460;-59
2022/06/26 04:03:09;;;;;;;;;5.25;4.75;;;;;19.69;75.97;98971.16;4826448;29;45459;-58
2022/06/26 04:05:37;;;;;;;;;5.00;4.75;;;;;19.61;74.22;98972.72;4826053;29;45376;-59
2022/06/26 04:08:03;;;;;;;;;5.00;5.00;;;;;19.48;76.70;98960.31;4825818;29;45727;-59
2022/06/26 04:10:30;;;;;;;;;4.75;4.00;;;;;19.38;77.48;98961.16;4825757;29;45821;-58
2022/06/26 04:13:06;;;;;;;;;5.20;5.20;;;;;19.32;76.74;98948.28;4826291;29;45310;-58
2022/06/26 04:15:33;;;;;;;;;2.00;2.00;;;;;19.27;76.48;98958.50;4826022;29;45461;-59
2022/06/26 04:18:00;;;;;;;;;4.75;4.00;;;;;19.24;76.88;98953.38;4824443;29;47650;-59
2022/06/26 04:20:25;;;;;;;;;5.60;5.60;;;;;19.21;77.33;98948.28;4824454;29;45403;-59
2022/06/26 04:23:02;;;;;;;;;3.50;3.50;;;;;19.15;77.04;98942.41;4826348;29;45256;-59
2022/06/26 04:25:30;;;;;;;;;5.00;5.00;;;;;19.14;78.83;98934.53;4825480;29;45376;-59
2022/06/26 04:27:56;;;;;;;;;5.80;5.80;;;;;19.11;76.48;98927.59;4825344;29;45419;-59
2022/06/26 04:30:22;;;;;;;;;6.50;6.00;;;;;19.14;77.32;98950.56;4825384;29;45334;-59
2022/06/26 04:32:48;;;;;;;;;3.50;3.25;;;;;19.17;77.93;98953.00;4825820;29;45452;-59
2022/06/26 04:35:14;;;;;;;;;5.75;5.75;;;;;19.17;80.04;98963.69;4824434;29;45464;-59
2022/06/26 04:37:43;;;;;;;;;6.60;5.60;;;;;19.08;79.54;98973.28;4825520;29;45605;-58
2022/06/26 04:40:11;;;;;;;;;4.00;4.00;;;;;18.99;79.83;98979.31;4824911;29;45473;-59
2022/06/26 04:42:38;;;;;;;;;5.00;5.00;;;;;18.93;81.23;98968.28;4825296;29;45511;-59
2022/06/26 04:45:04;;;;;;;;;5.00;5.00;;;;;18.88;81.56;98967.75;4825158;29;45389;-58
2022/06/26 04:47:30;;;;;;;;;6.00;6.00;;;;;18.82;81.04;98969.91;4824658;29;45486;-58
2022/06/26 04:49:55;;;;;;;;;4.75;4.75;;;;;18.83;81.98;98971.63;4825367;29;45548;-58
2022/06/26 04:52:21;;;;;;;;;5.00;5.00;;;;;18.81;81.38;98976.22;4825701;29;45744;-59
2022/06/26 04:54:46;;;;;;;;;3.75;3.25;;;;;18.82;81.82;98979.75;4825008;29;45379;-59
2022/06/26 04:57:12;;;;;;;;;5.50;5.50;;;;;18.85;80.98;98973.34;4825501;29;45417;-59
2022/06/26 04:59:38;;;;;;;;;5.25;4.75;;;;;18.92;80.33;98966.56;4824941;29;45307;-58
2022/06/26 05:02:05;;;;;;;;;5.50;4.50;;;;;19.01;80.01;98957.84;4825570;29;45530;-58
2022/06/26 05:04:30;;;;;;;;;5.00;5.00;;;;;19.12;80.77;98948.00;4825257;29;45371;-59
2022/06/26 05:06:56;;;;;;;;;8.25;6.75;;;;;19.26;79.77;98957.63;4825171;29;46645;-59
2022/06/26 05:09:22;;;;;;;;;4.00;4.00;;;;;19.41;79.06;98953.75;4824823;29;45401;-59
2022/06/26 05:11:49;;;;;;;;;7.00;5.00;;;;;19.60;78.44;98953.19;4825197;29;45292;-59
2022/06/26 05:14:14;;;;;;;;;5.25;5.25;;;;;19.78;78.40;98948.16;4824825;29;45553;-58
2022/06/26 05:16:39;;;;;;;;;5.50;5.50;;;;;19.94;77.17;98953.97;4824648;29;45557;-58
2022/06/26 05:19:05;;;;;;;;;5.25;4.25;;;;;20.06;77.43;98947.66;4824733;29;45443;-59
2022/06/26 05:21:31;;;;;;;;;7.25;6.00;;;;;20.20;76.96;98951.84;4825175;29;45427;-59
2022/06/26 05:23:57;;;;;;;;;8.00;6.50;;;;;20.30;76.80;98943.91;4824706;29;45576;-59
2022/06/26 05:26:23;;;;;;;;;6.50;6.00;;;;;20.39;76.29;98938.69;4824478;29;46187;-59
2022/06/26 05:28:49;;;;;;;;;5.60;5.40;;;;;20.49;75.98;98936.94;4824340;29;45413;-59
2022/06/26 05:31:14;;;;;;;;;7.00;6.00;;;;;20.60;75.72;98944.09;4808366;29;45476;-59
2022/06/26 05:33:40;;;;;;;;;8.00;8.00;;;;;20.70;75.56;98950.34;4824564;29;45570;-59
2022/06/26 05:36:07;;;;;;;;;6.00;6.00;;;;;20.81;74.82;98952.13;4824524;29;46331;-59
2022/06/26 05:38:33;;;;;;;;;6.20;6.20;;;;;20.90;74.86;98949.53;4824508;29;45376;-58
2022/06/26 05:40:59;;;;;;;;;7.20;7.20;;;;;21.01;73.82;98947.75;4825007;29;45591;-59
2022/06/26 05:43:24;;;;;;;;;7.50;7.00;;;;;21.10;73.27;98933.56;4824514;29;45616;-59
2022/06/26 05:45:50;;;;;;;;;6.25;6.25;;;;;21.17;72.93;98940.94;4824549;29;45432;-59
2022/06/26 05:48:15;;;;;;;;;6.50;5.75;;;;;21.25;72.34;98943.00;4824655;29;45448;-59
2022/06/26 05:50:41;;;;;;;;;7.50;6.50;;;;;21.29;71.22;98938.19;4824889;29;45383;-59
2022/06/26 05:53:06;;;;;;;;;6.75;6.75;;;;;21.35;70.84;98933.16;4824510;29;45487;-59
2022/06/26 05:55:33;;;;;;;;;6.25;6.00;;;;;21.41;70.32;98935.31;4824257;29;45420;-59
2022/06/26 05:57:59;;;;;;;;;7.00;7.00;;;;;21.49;70.31;98934.63;4824274;29;45351;-59
2022/06/26 06:00:25;;;;;;;;;8.75;8.75;;;;;21.57;69.94;98934.81;4824376;29;45440;-59
2022/06/26 06:02:51;;;;;;;;;6.75;6.75;;;;;21.64;69.51;98932.41;4824285;29;45491;-59
2022/06/26 06:05:16;;;;;;;;;9.25;7.75;;;;;21.69;68.68;98933.72;4823889;29;46456;-59
2022/06/26 06:07:41;;;;;;;;;4.75;4.75;;;;;21.73;69.11;98929.78;4824219;29;45396;-59
2022/06/26 06:10:08;;;;;;;;;8.00;7.00;;;;;21.81;68.72;98929.94;4824109;29;45372;-59
2022/06/26 06:12:34;;;;;;;;;7.00;7.00;;;;;21.88;68.83;98923.03;4824170;29;45498;-59
2022/06/26 06:14:59;;;;;;;;;7.25;7.25;;;;;21.97;67.88;98932.09;4824299;29;46390;-58
2022/06/26 06:17:37;;;;;;;;;7.00;7.00;;;;;22.02;67.88;98935.25;4823748;29;45442;-59
2022/06/26 06:20:19;;;;;;;;;7.00;6.60;;;;;22.08;67.49;98945.44;4824047;29;45399;-59
2022/06/26 06:22:46;;;;;;;;;6.00;6.00;;;;;22.12;66.83;98946.03;4824214;29;45342;-59
2022/06/26 06:25:12;;;;;;;;;7.80;6.60;;;;;22.16;66.53;98937.53;4822196;29;45574;-58
2022/06/26 06:27:38;;;;;;;;;5.75;5.75;;;;;22.19;66.54;98936.41;4822882;29;45463;-59
2022/06/26 06:30:06;;;;;;;;;7.00;6.75;;;;;22.23;66.60;98932.47;4823384;29;45489;-59
2022/06/26 06:32:32;;;;;;;;;6.00;6.00;;;;;22.28;66.44;98927.53;4823624;29;45380;-59
2022/06/26 06:34:58;;;;;;;;;6.75;6.75;;;;;22.33;66.01;98913.66;4823637;29;46506;-58
2022/06/26 06:37:23;;;;;;;;;6.20;6.20;;;;;22.37;65.89;98915.94;4824107;29;45376;-59
2022/06/26 06:39:49;;;;;;;;;6.00;6.00;;;;;22.42;65.58;98911.00;4823697;29;45404;-59
2022/06/26 06:42:14;;;;;;;;;7.00;7.00;;;;;22.47;64.98;98913.25;4824113;29;45346;-59
2022/06/26 06:44:40;;;;;;;;;7.25;5.50;;;;;22.50;64.61;98913.81;4807034;29;47450;-59
2022/06/26 06:47:06;;;;;;;;;7.00;7.00;;;;;22.55;64.87;98911.56;4823557;29;45461;-59
2022/06/26 06:49:32;;;;;;;;;7.00;6.00;;;;;22.60;64.74;98911.13;4823394;29;45385;-61
2022/06/26 06:51:58;;;;;;;;;6.75;6.75;;;;;22.64;63.98;98915.22;4823598;29;45403;-61
2022/06/26 06:54:24;;;;;;;;;7.00;5.75;;;;;22.67;63.91;98911.41;4806637;29;46944;-62
2022/06/26 06:56:49;;;;;;;;;6.00;5.00;;;;;22.71;63.69;98910.97;4823765;29;45380;-61
2022/06/26 06:59:15;;;;;;;;;6.00;5.75;;;;;22.78;63.74;98909.47;4825085;29;45582;-62
2022/06/26 07:01:40;;;;;;;;;5.00;5.00;;;;;22.84;63.54;98910.69;4826625;29;45568;-62
2022/06/26 07:04:07;;;;;;;;;5.00;5.00;;;;;22.91;63.30;98901.06;4826434;29;46573;-61
2022/06/26 07:06:33;;;;;;;;;6.60;5.60;;;;;22.96;62.79;98899.63;4826734;29;45392;-59
2022/06/26 07:08:59;;;;;;;;;8.00;7.00;;;;;23.03;62.80;98899.06;4826477;29;45346;-59
2022/06/26 07:11:25;;;;;;;;;4.75;4.25;;;;;23.08;62.46;98896.78;4826233;29;45489;-59
2022/06/26 07:13:50;;;;;;;;;6.75;6.50;;;;;23.14;62.19;98897.03;4826699;29;46310;-59
2022/06/26 07:16:16;;;;;;;;;5.50;5.50;;;;;23.23;62.29;98898.88;4826710;29;45395;-59
2022/06/26 07:18:42;;;;;;;;;6.40;5.80;;;;;23.30;61.98;98897.25;4826190;29;45532;-59
2022/06/26 07:21:07;;;;;;;;;5.25;5.25;;;;;23.36;61.65;98890.44;4826235;29;45571;-59
2022/06/26 07:23:33;;;;;;;;;5.75;5.75;;;;;23.42;61.73;98889.03;4825825;29;45382;-59
2022/06/26 07:25:58;;;;;;;;;7.25;6.25;;;;;23.47;61.38;98887.56;4826458;29;45509;-59
2022/06/26 07:28:24;;;;;;;;;6.25;6.25;;;;;23.51;61.22;98889.00;4826691;29;45354;-59
2022/06/26 07:30:49;;;;;;;;;6.75;6.50;;;;;23.56;61.42;98883.19;4826666;29;45367;-58
2022/06/26 07:35:59;;;;;;;;;7.00;6.00;;;;;23.69;61.31;98878.28;4826375;29;45527;-59
2022/06/26 07:38:24;;;;;;;;;6.50;6.50;;;;;23.76;61.33;98878.53;4826164;29;45440;-59
2022/06/26 07:40:50;;;;;;;;;7.25;5.50;;;;;23.83;60.45;98883.16;4826127;29;45380;-59
2022/06/26 07:43:16;;;;;;;;;6.80;6.20;;;;;23.86;60.02;98869.41;4825776;29;46666;-59
2022/06/26 07:45:41;;;;;;;;;6.00;4.00;;;;;23.90;59.70;98870.78;4826012;29;45368;-59
2022/06/26 07:48:07;;;;;;;;;5.00;3.75;;;;;23.95;59.91;98873.03;4825997;29;45193;-59
2022/06/26 07:50:32;;;;;;;;;5.50;4.75;;;;;24.01;59.58;98873.25;4825837;29;45454;-59
2022/06/26 07:52:58;;;;;;;;;5.00;5.00;;;;;24.07;59.64;98870.97;4825805;29;45484;-59
2022/06/26 07:55:23;;;;;;;;;4.25;4.25;;;;;24.12;58.98;98868.66;4825790;29;45389;-59
2022/06/26 07:57:48;;;;;;;;;6.00;5.00;;;;;24.16;58.77;98862.81;4826254;29;45303;-59
2022/06/26 08:00:14;;;;;;;;;4.50;4.00;;;;;24.21;58.54;98852.41;4825905;29;45482;-59
2022/06/26 08:02:40;;;;;;;;;7.00;7.00;;;;;24.24;58.60;98851.31;4825850;29;46278;-59
2022/06/26 08:05:06;;;;;;;;;5.25;5.25;;;;;24.26;58.44;98847.47;4826002;29;45511;-59
2022/06/26 08:07:32;;;;;;;;;5.00;4.80;;;;;24.30;58.47;98850.66;4826059;29;45467;-59
2022/06/26 08:09:57;;;;;;;;;5.25;5.25;;;;;24.32;58.16;98852.22;4824636;29;45583;-59
2022/06/26 08:12:22;;;;;;;;;6.00;6.00;;;;;24.34;58.09;98841.28;4825895;29;45467;-59
2022/06/26 08:14:48;;;;;;;;;4.25;4.25;;;;;24.38;58.25;98841.81;4825787;29;45444;-59
2022/06/26 08:17:13;;;;;;;;;5.00;5.00;;;;;24.42;58.42;98846.75;4825988;29;45827;-59
2022/06/26 08:19:39;;;;;;;;;6.25;6.25;;;;;24.45;58.43;98838.34;4825893;29;45403;-59
2022/06/26 08:22:04;;;;;;;;;5.00;5.00;;;;;24.52;58.47;98841.25;4824412;29;47610;-59
2022/06/26 08:24:31;;;;;;;;;5.50;4.50;;;;;24.59;58.40;98843.19;4825691;29;45432;-59
2022/06/26 08:26:57;;;;;;;;;7.00;6.80;;;;;24.67;58.22;98831.59;4825415;29;45312;-59
2022/06/26 08:29:22;;;;;;;;;6.00;6.00;;;;;24.72;58.03;98834.66;4825067;29;45572;-59
2022/06/26 08:31:48;;;;;;;;;7.00;7.00;;;;;24.77;58.13;98826.97;4825131;29;45719;-59
2022/06/26 08:34:13;;;;;;;;;5.25;5.25;;;;;24.81;58.06;98831.00;4825508;29;45360;-59
2022/06/26 08:36:39;;;;;;;;;5.25;5.25;;;;;24.85;58.33;98831.56;4825546;29;45258;-59
2022/06/26 08:39:08;;;;;;;;;6.00;6.00;;;;;24.91;58.12;98833.63;4824566;29;45477;-57
2022/06/26 08:41:40;;;;;;;;;5.40;5.40;;;;;24.95;58.23;98835.88;4824892;29;45424;-58
2022/06/26 08:44:06;;;;;;;;;6.60;6.00;;;;;24.99;57.78;98831.00;4825684;29;45453;-57
2022/06/26 08:46:36;;;;;;;;;6.00;5.20;;;;;25.04;57.79;98829.50;4825435;29;45339;-60
2022/06/26 08:49:08;;;;;;;;;5.75;5.00;;;;;25.11;57.21;98821.63;4825009;29;45613;-60
2022/06/26 08:51:35;;;;;;;;;4.80;4.80;;;;;25.14;56.48;98813.19;4825081;29;47778;-61
2022/06/26 08:54:01;;;;;;;;;6.00;4.20;;;;;25.18;56.11;98816.41;4824699;29;45308;-60
2022/06/26 08:56:27;;;;;;;;;5.25;5.00;;;;;25.23;56.41;98806.00;4825118;29;45398;-60
2022/06/26 08:58:54;;;;;;;;;7.00;7.00;;;;;25.29;56.33;98806.22;4824907;29;45442;-60
2022/06/26 09:01:20;;;;;;;;;6.80;6.80;;;;;25.35;55.95;98805.53;4824746;29;46378;-60
2022/06/26 09:03:45;;;;;;;;;6.75;6.75;;;;;25.41;56.44;98809.44;4825239;29;45423;-60
2022/06/26 09:06:11;;;;;;;;;4.75;4.75;;;;;25.46;55.95;98809.81;4824835;29;45624;-58
2022/06/26 09:08:44;;;;;;;;;6.00;6.00;;;;;25.49;55.58;98804.06;4824680;29;45428;-58
2022/06/26 09:11:10;;;;;;;;;7.00;7.00;;;;;25.43;55.44;98804.75;4823820;29;46211;-58
2022/06/26 09:13:41;;;;;;;;;7.00;6.20;;;;;25.33;55.13;98812.94;4824767;29;45452;-60
2022/06/26 09:16:07;;;;;;;;;7.40;7.40;;;;;25.27;55.29;98801.97;4824904;29;45523;-60
2022/06/26 09:18:35;;;;;;;;;8.75;7.50;;;;;25.21;55.80;98797.22;4824275;29;45407;-60
2022/06/26 09:21:01;;;;;;;;;9.20;7.40;;;;;25.13;55.52;98810.69;4807057;29;47438;-60
2022/06/26 09:23:27;;;;;;;;;7.40;7.40;;;;;25.01;55.77;98800.16;4823212;29;45412;-60
2022/06/26 09:25:52;;;;;;;;;9.00;9.00;;;;;24.93;55.84;98797.41;4824626;29;45419;-60
2022/06/26 09:28:22;;;;;;;;;8.50;7.00;;;;;24.90;56.48;98796.88;4824600;29;45465;-60
2022/06/26 09:30:56;;;;;;;;;6.00;6.00;;;;;24.89;56.58;98792.47;4823694;29;46544;-61
2022/06/26 09:33:32;;;;;;;;;8.40;7.20;;;;;24.87;56.37;98786.41;4824977;29;45390;-60
2022/06/26 09:35:59;;;;;;;;;7.00;6.20;;;;;24.83;56.95;98793.94;4824467;29;45512;-58
2022/06/26 09:38:30;;;;;;;;;8.00;7.00;;;;;24.78;57.10;98796.31;4823882;29;45386;-58
2022/06/26 09:41:01;;;;;;;;;8.20;8.20;;;;;24.77;56.68;98788.38;4824661;29;45403;-58
2022/06/26 09:43:28;;;;;;;;;10.40;8.00;;;;;24.78;57.36;98784.66;4824449;29;45429;-58
2022/06/26 09:45:55;;;;;;;;;5.80;5.80;;;;;24.79;57.70;98781.81;4824597;29;45354;-58
2022/06/26 09:48:23;;;;;;;;;7.00;7.00;;;;;24.81;57.72;98781.63;4824341;29;45386;-58
2022/06/26 09:50:49;;;;;;;;;8.60;7.60;;;;;24.80;57.73;98777.28;4824520;29;46554;-58
2022/06/26 09:53:18;;;;;;;;;6.80;6.80;;;;;24.82;57.59;98775.22;4823860;29;45456;-58
2022/06/26 09:55:45;;;;;;;;;9.25;8.25;;;;;24.82;57.53;98764.44;4824179;29;45441;-58
2022/06/26 09:58:12;;;;;;;;;8.25;8.25;;;;;24.80;57.48;98767.28;4823980;29;45378;-58
2022/06/26 10:00:38;;;;;;;;;8.00;8.00;;;;;24.80;57.67;98763.78;4823883;29;45431;-60
2022/06/26 10:08:37;;;;;;;;;8.50;8.00;;;;;24.93;57.21;98742.63;4823791;29;45589;-58
2022/06/26 10:11:03;;;;;;;;;9.40;8.40;;;;;24.99;57.06;98739.28;4823904;29;45515;-58
2022/06/26 10:13:33;;;;;;;;;8.20;8.20;;;;;25.03;56.60;98749.59;4824170;29;45364;-58
2022/06/26 10:16:14;;;;;;;;;6.60;6.60;;;;;25.09;56.43;98734.63;4823773;29;45437;-58
2022/06/26 10:19:16;;;;;;;;;9.20;7.00;;;;;25.21;56.06;98741.41;4823372;29;45432;-58
2022/06/26 10:21:42;;;;;;;;;9.40;8.80;;;;;25.31;54.72;98743.94;4823844;29;45413;-58
2022/06/26 10:24:07;;;;;;;;;6.50;5.75;;;;;25.36;54.90;98731.66;4823449;29;45415;-58
2022/06/26 10:26:34;;;;;;;;;6.00;6.00;;;;;25.44;53.09;98736.25;4807317;29;45451;-58
2022/06/26 10:29:03;;;;;;;;;4.00;4.00;;;;;25.49;53.69;98714.13;4823747;29;45802;-58
2022/06/26 10:31:30;;;;;;;;;7.20;6.60;;;;;25.56;53.13;98723.28;4823826;29;45659;-58
2022/06/26 10:34:07;;;;;;;;;6.40;6.00;;;;;25.61;53.92;98720.94;4822830;29;45407;-58
2022/06/26 10:36:33;;;;;;;;;6.00;5.00;;;;;25.69;54.93;98724.50;4823730;29;45367;-58
2022/06/26 10:39:06;;;;;;;;;6.75;6.75;;;;;25.77;55.20;98737.19;4823407;29;45484;-57
2022/06/26 10:44:44;;;;;;;;;7.80;6.00;;;;;25.86;53.57;98729.91;4824055;29;45335;-58
2022/06/26 10:47:15;;;;;;;;;6.80;6.20;;;;;25.87;53.97;98705.44;4824138;29;46133;-58
2022/06/26 10:49:51;;;;;;;;;6.00;6.00;;;;;25.91;53.11;98701.41;4823741;29;45355;-58
2022/06/26 10:52:29;;;;;;;;;6.80;4.80;;;;;25.94;53.32;98692.97;4823653;29;46855;-58
2022/06/26 10:54:57;;;;;;;;;6.00;4.60;;;;;26.00;51.52;98684.16;4823063;29;45393;-58
2022/06/26 10:57:35;;;;;;;;;6.20;4.60;;;;;26.05;52.22;98711.53;4823841;29;45444;-58
2022/06/26 11:00:04;;;;;;;;;5.80;5.80;;;;;26.10;51.65;98702.91;4823437;29;45459;-58
2022/06/26 11:02:36;;;;;;;;;5.60;4.60;;;;;26.13;50.67;98693.63;4823020;29;46201;-58
2022/06/26 11:05:04;;;;;;;;;4.80;4.80;;;;;26.12;51.47;98683.84;4823654;29;45365;-58
2022/06/26 11:07:49;;;;;;;;;5.60;4.40;;;;;26.14;52.03;98689.91;4823414;29;45287;-58
2022/06/26 11:10:19;;;;;;;;;7.00;6.00;;;;;26.19;53.06;98693.78;4823024;29;45392;-58
2022/06/26 11:12:50;;;;;;;;;8.00;8.00;;;;;26.22;52.29;98677.22;4823103;29;46519;-58
2022/06/26 11:15:34;;;;;;;;;6.00;6.00;;;;;26.26;52.12;98683.97;4823232;29;45434;-58
2022/06/26 11:18:04;;;;;;;;;4.60;3.80;;;;;26.30;52.33;98668.31;4822742;29;45408;-57
2022/06/26 11:20:49;;;;;;;;;6.40;5.80;;;;;26.35;51.94;98668.59;4823179;29;45472;-58
2022/06/26 11:23:36;;;;;;;;;6.20;5.80;;;;;26.38;53.01;98657.44;4807493;29;47451;-58
2022/06/26 11:26:09;;;;;;;;;8.60;6.80;;;;;26.40;53.29;98675.19;4823173;29;45312;-57
2022/06/26 11:28:41;;;;;;;;;6.40;5.40;;;;;26.41;53.64;98662.53;4823270;29;45541;-57
2022/06/26 11:31:29;;;;;;;;;8.50;6.00;;;;;26.53;53.55;98671.09;4823261;29;45319;-57
2022/06/26 11:33:55;;;;;;;;;8.20;6.60;;;;;26.62;53.32;98654.69;4822957;29;46376;-57
2022/06/26 11:36:22;;;;;;;;;6.80;6.40;;;;;26.69;53.56;98650.25;4823387;29;45450;-58
2022/06/26 11:38:56;;;;;;;;;8.20;7.00;;;;;26.72;53.72;98652.59;4822742;29;45368;-57
2022/06/26 11:41:23;;;;;;;;;5.00;5.00;;;;;26.74;53.01;98644.31;4822920;29;45541;-57
2022/06/26 11:43:54;;;;;;;;;6.00;6.00;;;;;26.77;53.66;98634.00;4823130;29;46065;-57
2022/06/26 11:46:21;;;;;;;;;8.60;7.60;;;;;26.86;52.98;98640.19;4825559;29;45496;-58